Hauptseite
METAR-TAF:

METAR-TAF

Flughäfen :

Flughafen Inverness

Inverness, Schottland

Breite: 57-32N, Länge: 004-03W, Höhe: 9 m

Beobachtung

Neuester Wetterbericht von vor 44 Minuten, um 05:20 UTC
Wind 6 kt aus Südwest
Temperatur 8°C
Luftfeuchtigkeit 87%
Luftdruck 1005 hPa
Sichtweite 10 km oder mehr
Leicht bewölkt in der Höhe von 400 ft
Durchbrochene Bewölkung in der Höhe von 3500 ft

METAR: EGPE 040520Z 22006KT 9999 FEW004 BKN035 08/06 Q1005

Zeit: 07:04 (06:04 UTC)

Prognose

Neuester Wetterbericht von vor 4 Stunden und 1 Minuten, um 02:03 UTC
Gültige Prognose vom 04 um 03 UTC bis 04 um 12 UTC
Wind 8 kt aus Südwest
Sichtweite 10 km oder mehr
Leicht bewölkt in der Höhe von 4500 ft
Zeitweise
vom 04 um 03 UTC bis 04 um 12 UTC
Sichtweite: 8000 m
Durchbrochene Bewölkung in der Höhe von 1200 ft
Regenschauer

TAF: EGPE 040203Z 0403/0412 22008KT 9999 FEW045 TEMPO 0403/0412 8000 SHRA BKN012

Wetterbeobachtungen und Prognosen von mehr als 4000 Flughäfen (METAR und TAF Bericht).

Die verfügbaren Stationen werden durch gelbe und rote Markierungen auf der Karte dargestellt.

Führen Sie die Maus auf sie, um den Namen der Station zu sehen.

Darauf klicken, um die Beobachtung von Wetterbeobachtungen und Prognosen zu sehen.

Um die Karte zu ändern : klicken Sie auf den grünen Tasten mit einem schwarzen Kreuz Zum Vergrößern, auf den grünen Button mit einem Gedankenstrich zu verkleinern, oder auf die grünen Pfeile für benachbarte Karten.


METAR-TAF: